sensor_id;sensor_type;location;lat;lon;timestamp;P1;durP1;ratioP1;P2;durP2;ratioP2
25497;SDS011;13406;53.380;7.226;2022-12-05T00:02:05;21.40;;;15.43;;
25497;SDS011;13406;53.380;7.226;2022-12-05T00:04:30;24.43;;;16.07;;
25497;SDS011;13406;53.380;7.226;2022-12-05T00:06:56;25.03;;;15.30;;
25497;SDS011;13406;53.380;7.226;2022-12-05T00:09:21;19.90;;;14.93;;
25497;SDS011;13406;53.380;7.226;2022-12-05T00:11:46;19.83;;;14.90;;
25497;SDS011;13406;53.380;7.226;2022-12-05T00:14:12;19.93;;;13.80;;
25497;SDS011;13406;53.380;7.226;2022-12-05T00:16:38;16.80;;;13.17;;
25497;SDS011;13406;53.380;7.226;2022-12-05T00:19:04;15.17;;;12.27;;
25497;SDS011;13406;53.380;7.226;2022-12-05T00:21:30;14.03;;;11.90;;
25497;SDS011;13406;53.380;7.226;2022-12-05T00:23:56;14.33;;;10.10;;
25497;SDS011;13406;53.380;7.226;2022-12-05T00:26:22;13.47;;;10.97;;
25497;SDS011;13406;53.380;7.226;2022-12-05T00:28:48;13.00;;;10.60;;
25497;SDS011;13406;53.380;7.226;2022-12-05T00:31:14;15.10;;;10.70;;
25497;SDS011;13406;53.380;7.226;2022-12-05T00:33:43;12.97;;;10.37;;
25497;SDS011;13406;53.380;7.226;2022-12-05T00:36:10;13.10;;;9.77;;
25497;SDS011;13406;53.380;7.226;2022-12-05T00:38:35;12.20;;;10.20;;
25497;SDS011;13406;53.380;7.226;2022-12-05T00:41:05;14.83;;;11.10;;
25497;SDS011;13406;53.380;7.226;2022-12-05T00:43:30;12.97;;;10.13;;
25497;SDS011;13406;53.380;7.226;2022-12-05T00:45:59;12.10;;;10.77;;
25497;SDS011;13406;53.380;7.226;2022-12-05T00:48:28;13.00;;;9.70;;
25497;SDS011;13406;53.380;7.226;2022-12-05T00:51:03;12.17;;;9.70;;
25497;SDS011;13406;53.380;7.226;2022-12-05T00:53:29;11.13;;;8.60;;
25497;SDS011;13406;53.380;7.226;2022-12-05T00:55:54;13.27;;;9.27;;
25497;SDS011;13406;53.380;7.226;2022-12-05T00:58:20;11.90;;;9.90;;
25497;SDS011;13406;53.380;7.226;2022-12-05T01:00:45;10.80;;;9.13;;
25497;SDS011;13406;53.380;7.226;2022-12-05T01:03:10;9.60;;;8.60;;
25497;SDS011;13406;53.380;7.226;2022-12-05T01:05:35;11.43;;;8.70;;
25497;SDS011;13406;53.380;7.226;2022-12-05T01:08:01;10.83;;;9.00;;
25497;SDS011;13406;53.380;7.226;2022-12-05T01:10:26;9.60;;;7.97;;
25497;SDS011;13406;53.380;7.226;2022-12-05T01:12:52;10.53;;;8.83;;
25497;SDS011;13406;53.380;7.226;2022-12-05T01:15:17;10.10;;;8.13;;
25497;SDS011;13406;53.380;7.226;2022-12-05T01:17:42;8.03;;;6.90;;
25497;SDS011;13406;53.380;7.226;2022-12-05T01:20:08;11.70;;;8.50;;
25497;SDS011;13406;53.380;7.226;2022-12-05T01:22:36;9.23;;;7.27;;
25497;SDS011;13406;53.380;7.226;2022-12-05T01:25:01;10.00;;;7.80;;
25497;SDS011;13406;53.380;7.226;2022-12-05T01:27:27;8.30;;;7.40;;
25497;SDS011;13406;53.380;7.226;2022-12-05T01:29:52;9.07;;;7.60;;
25497;SDS011;13406;53.380;7.226;2022-12-05T01:32:17;9.63;;;6.90;;
25497;SDS011;13406;53.380;7.226;2022-12-05T01:34:43;8.57;;;7.00;;
25497;SDS011;13406;53.380;7.226;2022-12-05T01:37:08;8.87;;;7.30;;
25497;SDS011;13406;53.380;7.226;2022-12-05T01:39:33;8.30;;;6.73;;
25497;SDS011;13406;53.380;7.226;2022-12-05T01:41:58;7.90;;;7.10;;
25497;SDS011;13406;53.380;7.226;2022-12-05T01:46:50;8.17;;;7.23;;
25497;SDS011;13406;53.380;7.226;2022-12-05T01:51:46;8.00;;;6.40;;
25497;SDS011;13406;53.380;7.226;2022-12-05T01:54:11;8.90;;;6.80;;
25497;SDS011;13406;53.380;7.226;2022-12-05T01:56:38;8.80;;;6.33;;
25497;SDS011;13406;53.380;7.226;2022-12-05T01:59:05;6.27;;;5.27;;
25497;SDS011;13406;53.380;7.226;2022-12-05T02:01:31;9.03;;;6.73;;
25497;SDS011;13406;53.380;7.226;2022-12-05T02:03:57;8.07;;;6.17;;
25497;SDS011;13406;53.380;7.226;2022-12-05T02:06:23;8.37;;;6.00;;
25497;SDS011;13406;53.380;7.226;2022-12-05T02:08:50;6.63;;;5.73;;
25497;SDS011;13406;53.380;7.226;2022-12-05T02:11:15;8.53;;;5.63;;
25497;SDS011;13406;53.380;7.226;2022-12-05T02:28:52;8.50;;;6.03;;
25497;SDS011;13406;53.380;7.226;2022-12-05T02:31:23;7.40;;;5.67;;
25497;SDS011;13406;53.380;7.226;2022-12-05T02:36:35;6.33;;;5.60;;
25497;SDS011;13406;53.380;7.226;2022-12-05T02:43:59;7.37;;;5.70;;
25497;SDS011;13406;53.380;7.226;2022-12-05T02:46:28;6.93;;;5.50;;
25497;SDS011;13406;53.380;7.226;2022-12-05T02:48:55;11.93;;;5.70;;
25497;SDS011;13406;53.380;7.226;2022-12-05T02:51:21;5.53;;;4.93;;
25497;SDS011;13406;53.380;7.226;2022-12-05T02:53:48;6.57;;;5.23;;
25497;SDS011;13406;53.380;7.226;2022-12-05T02:56:14;5.80;;;5.20;;
25497;SDS011;13406;53.380;7.226;2022-12-05T02:58:40;6.43;;;5.70;;
25497;SDS011;13406;53.380;7.226;2022-12-05T03:01:08;7.07;;;5.47;;
25497;SDS011;13406;53.380;7.226;2022-12-05T03:03:34;6.70;;;5.40;;
25497;SDS011;13406;53.380;7.226;2022-12-05T03:06:12;8.87;;;5.93;;
25497;SDS011;13406;53.380;7.226;2022-12-05T03:08:44;7.57;;;5.80;;
25497;SDS011;13406;53.380;7.226;2022-12-05T03:11:11;6.07;;;5.47;;
25497;SDS011;13406;53.380;7.226;2022-12-05T03:13:44;7.30;;;5.53;;
25497;SDS011;13406;53.380;7.226;2022-12-05T03:16:15;8.73;;;5.70;;
25497;SDS011;13406;53.380;7.226;2022-12-05T03:19:16;7.03;;;5.17;;
25497;SDS011;13406;53.380;7.226;2022-12-05T03:24:18;6.30;;;5.23;;
25497;SDS011;13406;53.380;7.226;2022-12-05T03:31:54;6.87;;;6.10;;
25497;SDS011;13406;53.380;7.226;2022-12-05T03:34:57;5.73;;;5.13;;
25497;SDS011;13406;53.380;7.226;2022-12-05T03:37:21;6.13;;;5.13;;
25497;SDS011;13406;53.380;7.226;2022-12-05T03:39:51;4.63;;;4.10;;
25497;SDS011;13406;53.380;7.226;2022-12-05T03:42:19;7.47;;;5.03;;
25497;SDS011;13406;53.380;7.226;2022-12-05T03:44:53;5.50;;;4.77;;
25497;SDS011;13406;53.380;7.226;2022-12-05T03:47:32;6.53;;;5.23;;
25497;SDS011;13406;53.380;7.226;2022-12-05T03:50:06;7.50;;;5.33;;
25497;SDS011;13406;53.380;7.226;2022-12-05T03:52:45;7.37;;;5.50;;
25497;SDS011;13406;53.380;7.226;2022-12-05T03:55:11;8.13;;;5.67;;
25497;SDS011;13406;53.380;7.226;2022-12-05T04:00:16;10.03;;;5.70;;
25497;SDS011;13406;53.380;7.226;2022-12-05T04:02:50;7.40;;;5.87;;
25497;SDS011;13406;53.380;7.226;2022-12-05T04:05:27;7.33;;;5.43;;
25497;SDS011;13406;53.380;7.226;2022-12-05T04:07:56;8.57;;;5.27;;
25497;SDS011;13406;53.380;7.226;2022-12-05T04:10:24;9.93;;;5.40;;
25497;SDS011;13406;53.380;7.226;2022-12-05T04:12:51;5.37;;;4.60;;
25497;SDS011;13406;53.380;7.226;2022-12-05T04:15:19;7.20;;;5.03;;
25497;SDS011;13406;53.380;7.226;2022-12-05T04:17:59;5.90;;;4.90;;
25497;SDS011;13406;53.380;7.226;2022-12-05T04:23:09;6.17;;;4.97;;
25497;SDS011;13406;53.380;7.226;2022-12-05T04:25:48;4.90;;;4.40;;
25497;SDS011;13406;53.380;7.226;2022-12-05T04:28:35;6.43;;;5.00;;
25497;SDS011;13406;53.380;7.226;2022-12-05T04:36:30;6.00;;;4.80;;
25497;SDS011;13406;53.380;7.226;2022-12-05T04:39:01;7.23;;;4.90;;
25497;SDS011;13406;53.380;7.226;2022-12-05T04:41:28;7.50;;;5.30;;
25497;SDS011;13406;53.380;7.226;2022-12-05T04:43:57;5.23;;;4.70;;
25497;SDS011;13406;53.380;7.226;2022-12-05T04:46:23;4.97;;;4.10;;
25497;SDS011;13406;53.380;7.226;2022-12-05T04:48:50;5.67;;;5.10;;
25497;SDS011;13406;53.380;7.226;2022-12-05T04:51:18;8.27;;;4.43;;
25497;SDS011;13406;53.380;7.226;2022-12-05T04:53:45;5.60;;;4.70;;
25497;SDS011;13406;53.380;7.226;2022-12-05T04:56:10;5.97;;;4.83;;
25497;SDS011;13406;53.380;7.226;2022-12-05T04:58:38;5.70;;;5.10;;
25497;SDS011;13406;53.380;7.226;2022-12-05T05:01:06;5.93;;;5.10;;
25497;SDS011;13406;53.380;7.226;2022-12-05T05:06:00;4.97;;;4.23;;
25497;SDS011;13406;53.380;7.226;2022-12-05T05:08:27;8.27;;;4.93;;
25497;SDS011;13406;53.380;7.226;2022-12-05T05:13:20;5.47;;;4.50;;
25497;SDS011;13406;53.380;7.226;2022-12-05T05:15:46;7.07;;;4.97;;
25497;SDS011;13406;53.380;7.226;2022-12-05T05:18:11;5.27;;;4.40;;
25497;SDS011;13406;53.380;7.226;2022-12-05T05:20:36;7.93;;;5.40;;
25497;SDS011;13406;53.380;7.226;2022-12-05T05:23:02;6.37;;;4.40;;
25497;SDS011;13406;53.380;7.226;2022-12-05T05:25:27;4.93;;;4.00;;
25497;SDS011;13406;53.380;7.226;2022-12-05T05:27:53;6.13;;;4.50;;
25497;SDS011;13406;53.380;7.226;2022-12-05T05:30:19;7.17;;;4.70;;
25497;SDS011;13406;53.380;7.226;2022-12-05T05:32:45;9.03;;;4.83;;
25497;SDS011;13406;53.380;7.226;2022-12-05T05:35:11;4.93;;;4.23;;
25497;SDS011;13406;53.380;7.226;2022-12-05T05:37:37;5.70;;;4.10;;
25497;SDS011;13406;53.380;7.226;2022-12-05T05:40:03;8.17;;;4.50;;
25497;SDS011;13406;53.380;7.226;2022-12-05T05:42:28;6.63;;;4.20;;
25497;SDS011;13406;53.380;7.226;2022-12-05T05:44:53;7.73;;;4.53;;
25497;SDS011;13406;53.380;7.226;2022-12-05T05:47:19;6.93;;;4.60;;
25497;SDS011;13406;53.380;7.226;2022-12-05T05:49:44;9.10;;;4.60;;
25497;SDS011;13406;53.380;7.226;2022-12-05T05:52:09;6.73;;;4.27;;
25497;SDS011;13406;53.380;7.226;2022-12-05T05:54:35;5.23;;;4.10;;
25497;SDS011;13406;53.380;7.226;2022-12-05T05:57:00;8.13;;;4.23;;
25497;SDS011;13406;53.380;7.226;2022-12-05T05:59:25;8.37;;;4.27;;
25497;SDS011;13406;53.380;7.226;2022-12-05T06:01:51;6.50;;;4.33;;
25497;SDS011;13406;53.380;7.226;2022-12-05T06:04:16;8.70;;;4.83;;
25497;SDS011;13406;53.380;7.226;2022-12-05T06:06:41;7.73;;;5.40;;
25497;SDS011;13406;53.380;7.226;2022-12-05T06:09:07;9.03;;;5.70;;
25497;SDS011;13406;53.380;7.226;2022-12-05T06:11:32;8.50;;;5.03;;
25497;SDS011;13406;53.380;7.226;2022-12-05T06:13:58;7.93;;;5.20;;
25497;SDS011;13406;53.380;7.226;2022-12-05T06:16:26;11.20;;;5.80;;
25497;SDS011;13406;53.380;7.226;2022-12-05T06:18:52;11.37;;;6.07;;
25497;SDS011;13406;53.380;7.226;2022-12-05T06:21:17;9.70;;;5.63;;
25497;SDS011;13406;53.380;7.226;2022-12-05T06:23:43;8.60;;;6.30;;
25497;SDS011;13406;53.380;7.226;2022-12-05T06:26:09;8.07;;;6.20;;
25497;SDS011;13406;53.380;7.226;2022-12-05T06:28:35;9.63;;;6.10;;
25497;SDS011;13406;53.380;7.226;2022-12-05T06:31:05;8.70;;;6.23;;
25497;SDS011;13406;53.380;7.226;2022-12-05T06:33:30;9.93;;;5.87;;
25497;SDS011;13406;53.380;7.226;2022-12-05T06:36:03;8.70;;;6.07;;
25497;SDS011;13406;53.380;7.226;2022-12-05T06:38:29;11.47;;;6.30;;
25497;SDS011;13406;53.380;7.226;2022-12-05T06:40:54;12.40;;;6.33;;
25497;SDS011;13406;53.380;7.226;2022-12-05T06:43:19;9.37;;;6.00;;
25497;SDS011;13406;53.380;7.226;2022-12-05T06:45:45;10.17;;;6.20;;
25497;SDS011;13406;53.380;7.226;2022-12-05T06:48:10;10.77;;;6.33;;
25497;SDS011;13406;53.380;7.226;2022-12-05T06:50:35;8.30;;;6.47;;
25497;SDS011;13406;53.380;7.226;2022-12-05T06:53:01;9.03;;;6.37;;
25497;SDS011;13406;53.380;7.226;2022-12-05T06:55:26;8.53;;;6.47;;
25497;SDS011;13406;53.380;7.226;2022-12-05T06:57:51;8.20;;;5.70;;
25497;SDS011;13406;53.380;7.226;2022-12-05T07:00:16;8.33;;;5.60;;
25497;SDS011;13406;53.380;7.226;2022-12-05T07:03:00;7.97;;;6.83;;
25497;SDS011;13406;53.380;7.226;2022-12-05T07:05:26;14.90;;;8.60;;
25497;SDS011;13406;53.380;7.226;2022-12-05T07:07:51;8.90;;;5.70;;
25497;SDS011;13406;53.380;7.226;2022-12-05T07:10:17;6.87;;;5.63;;
25497;SDS011;13406;53.380;7.226;2022-12-05T07:12:42;6.77;;;5.50;;
25497;SDS011;13406;53.380;7.226;2022-12-05T07:15:07;9.27;;;6.37;;
25497;SDS011;13406;53.380;7.226;2022-12-05T07:17:36;8.53;;;5.50;;
25497;SDS011;13406;53.380;7.226;2022-12-05T07:20:02;9.70;;;5.97;;
25497;SDS011;13406;53.380;7.226;2022-12-05T07:22:28;9.17;;;6.00;;
25497;SDS011;13406;53.380;7.226;2022-12-05T07:24:53;7.83;;;5.83;;
25497;SDS011;13406;53.380;7.226;2022-12-05T07:27:18;9.90;;;6.10;;
25497;SDS011;13406;53.380;7.226;2022-12-05T07:29:44;8.23;;;5.77;;
25497;SDS011;13406;53.380;7.226;2022-12-05T07:32:09;7.93;;;5.33;;
25497;SDS011;13406;53.380;7.226;2022-12-05T07:34:34;7.37;;;5.33;;
25497;SDS011;13406;53.380;7.226;2022-12-05T07:37:00;7.33;;;5.73;;
25497;SDS011;13406;53.380;7.226;2022-12-05T07:39:25;6.13;;;5.03;;
25497;SDS011;13406;53.380;7.226;2022-12-05T07:41:50;10.13;;;6.17;;
25497;SDS011;13406;53.380;7.226;2022-12-05T07:44:16;7.63;;;6.07;;
25497;SDS011;13406;53.380;7.226;2022-12-05T07:46:41;9.00;;;6.20;;
25497;SDS011;13406;53.380;7.226;2022-12-05T07:49:06;8.10;;;5.80;;
25497;SDS011;13406;53.380;7.226;2022-12-05T07:51:32;7.70;;;5.03;;
25497;SDS011;13406;53.380;7.226;2022-12-05T07:53:58;8.07;;;5.50;;
25497;SDS011;13406;53.380;7.226;2022-12-05T07:56:23;5.23;;;4.67;;
25497;SDS011;13406;53.380;7.226;2022-12-05T07:58:49;9.27;;;5.27;;
25497;SDS011;13406;53.380;7.226;2022-12-05T08:01:16;6.57;;;5.60;;
25497;SDS011;13406;53.380;7.226;2022-12-05T08:03:41;8.00;;;5.53;;
25497;SDS011;13406;53.380;7.226;2022-12-05T08:06:09;6.33;;;5.20;;
25497;SDS011;13406;53.380;7.226;2022-12-05T08:08:35;8.87;;;5.57;;
25497;SDS011;13406;53.380;7.226;2022-12-05T08:11:07;7.60;;;5.40;;
25497;SDS011;13406;53.380;7.226;2022-12-05T08:13:33;9.53;;;6.30;;
25497;SDS011;13406;53.380;7.226;2022-12-05T08:16:02;9.00;;;5.77;;
25497;SDS011;13406;53.380;7.226;2022-12-05T08:18:27;7.07;;;5.50;;
25497;SDS011;13406;53.380;7.226;2022-12-05T08:20:53;7.80;;;5.30;;
25497;SDS011;13406;53.380;7.226;2022-12-05T08:23:18;9.83;;;5.73;;
25497;SDS011;13406;53.380;7.226;2022-12-05T08:25:43;8.83;;;6.03;;
25497;SDS011;13406;53.380;7.226;2022-12-05T08:28:09;10.87;;;6.47;;
25497;SDS011;13406;53.380;7.226;2022-12-05T08:30:34;7.80;;;5.90;;
25497;SDS011;13406;53.380;7.226;2022-12-05T08:32:59;9.47;;;6.10;;
25497;SDS011;13406;53.380;7.226;2022-12-05T08:35:25;7.23;;;5.80;;
25497;SDS011;13406;53.380;7.226;2022-12-05T08:37:50;14.33;;;6.83;;
25497;SDS011;13406;53.380;7.226;2022-12-05T08:40:16;9.43;;;6.33;;
25497;SDS011;13406;53.380;7.226;2022-12-05T08:42:41;8.67;;;5.40;;
25497;SDS011;13406;53.380;7.226;2022-12-05T08:45:06;10.53;;;6.30;;
25497;SDS011;13406;53.380;7.226;2022-12-05T08:47:32;6.93;;;5.53;;
25497;SDS011;13406;53.380;7.226;2022-12-05T08:49:57;7.83;;;5.90;;
25497;SDS011;13406;53.380;7.226;2022-12-05T08:52:22;9.47;;;6.20;;
25497;SDS011;13406;53.380;7.226;2022-12-05T08:54:48;6.93;;;6.00;;
25497;SDS011;13406;53.380;7.226;2022-12-05T08:57:13;8.50;;;6.50;;
25497;SDS011;13406;53.380;7.226;2022-12-05T08:59:38;9.57;;;6.50;;
25497;SDS011;13406;53.380;7.226;2022-12-05T09:02:03;9.87;;;6.47;;
25497;SDS011;13406;53.380;7.226;2022-12-05T09:04:29;8.30;;;6.10;;
25497;SDS011;13406;53.380;7.226;2022-12-05T09:06:54;7.80;;;5.83;;
25497;SDS011;13406;53.380;7.226;2022-12-05T09:09:19;8.57;;;6.00;;
25497;SDS011;13406;53.380;7.226;2022-12-05T09:11:45;7.47;;;5.80;;
25497;SDS011;13406;53.380;7.226;2022-12-05T09:14:13;10.83;;;5.83;;
25497;SDS011;13406;53.380;7.226;2022-12-05T09:16:38;8.53;;;4.93;;
25497;SDS011;13406;53.380;7.226;2022-12-05T09:19:04;8.53;;;6.17;;
25497;SDS011;13406;53.380;7.226;2022-12-05T09:21:30;7.93;;;5.80;;
25497;SDS011;13406;53.380;7.226;2022-12-05T09:23:58;8.80;;;6.00;;
25497;SDS011;13406;53.380;7.226;2022-12-05T09:26:25;7.20;;;5.50;;
25497;SDS011;13406;53.380;7.226;2022-12-05T09:28:50;8.00;;;5.13;;
25497;SDS011;13406;53.380;7.226;2022-12-05T09:31:17;8.10;;;4.97;;
25497;SDS011;13406;53.380;7.226;2022-12-05T09:33:43;6.40;;;4.63;;
25497;SDS011;13406;53.380;7.226;2022-12-05T09:38:37;6.13;;;4.53;;
25497;SDS011;13406;53.380;7.226;2022-12-05T09:43:46;6.13;;;4.47;;
25497;SDS011;13406;53.380;7.226;2022-12-05T09:48:58;6.17;;;4.43;;
25497;SDS011;13406;53.380;7.226;2022-12-05T09:51:23;6.30;;;4.80;;
25497;SDS011;13406;53.380;7.226;2022-12-05T09:53:49;5.50;;;4.90;;
25497;SDS011;13406;53.380;7.226;2022-12-05T09:58:50;7.97;;;4.70;;
25497;SDS011;13406;53.380;7.226;2022-12-05T10:03:42;5.80;;;4.37;;
25497;SDS011;13406;53.380;7.226;2022-12-05T10:08:57;6.93;;;4.87;;
25497;SDS011;13406;53.380;7.226;2022-12-05T10:11:36;5.43;;;4.40;;
25497;SDS011;13406;53.380;7.226;2022-12-05T10:14:22;7.47;;;4.53;;
25497;SDS011;13406;53.380;7.226;2022-12-05T10:16:53;7.80;;;4.60;;
25497;SDS011;13406;53.380;7.226;2022-12-05T10:19:27;5.17;;;4.57;;
25497;SDS011;13406;53.380;7.226;2022-12-05T10:21:55;7.50;;;4.47;;
25497;SDS011;13406;53.380;7.226;2022-12-05T10:24:44;8.10;;;4.53;;
25497;SDS011;13406;53.380;7.226;2022-12-05T10:27:14;6.87;;;5.20;;
25497;SDS011;13406;53.380;7.226;2022-12-05T10:32:30;9.60;;;5.87;;
25497;SDS011;13406;53.380;7.226;2022-12-05T10:35:40;8.40;;;5.30;;
25497;SDS011;13406;53.380;7.226;2022-12-05T10:37:47;6.43;;;4.57;;
25497;SDS011;13406;53.380;7.226;2022-12-05T10:40:12;9.43;;;5.30;;
25497;SDS011;13406;53.380;7.226;2022-12-05T10:42:38;7.10;;;4.50;;
25497;SDS011;13406;53.380;7.226;2022-12-05T10:45:12;6.83;;;4.30;;
25497;SDS011;13406;53.380;7.226;2022-12-05T10:47:37;5.97;;;4.97;;
25497;SDS011;13406;53.380;7.226;2022-12-05T10:50:20;6.33;;;4.17;;
25497;SDS011;13406;53.380;7.226;2022-12-05T10:52:46;6.77;;;4.20;;
25497;SDS011;13406;53.380;7.226;2022-12-05T10:55:12;5.93;;;4.70;;
25497;SDS011;13406;53.380;7.226;2022-12-05T10:57:37;6.50;;;4.50;;
25497;SDS011;13406;53.380;7.226;2022-12-05T11:00:10;7.40;;;4.83;;
25497;SDS011;13406;53.380;7.226;2022-12-05T11:02:37;6.37;;;4.40;;
25497;SDS011;13406;53.380;7.226;2022-12-05T11:05:04;5.70;;;4.03;;
25497;SDS011;13406;53.380;7.226;2022-12-05T11:07:43;5.63;;;4.77;;
25497;SDS011;13406;53.380;7.226;2022-12-05T11:12:46;5.00;;;4.17;;
25497;SDS011;13406;53.380;7.226;2022-12-05T11:17:40;5.40;;;3.93;;
25497;SDS011;13406;53.380;7.226;2022-12-05T11:22:40;4.80;;;3.93;;
25497;SDS011;13406;53.380;7.226;2022-12-05T11:25:21;6.70;;;3.70;;
25497;SDS011;13406;53.380;7.226;2022-12-05T11:27:47;6.03;;;3.73;;
25497;SDS011;13406;53.380;7.226;2022-12-05T11:32:37;6.67;;;3.90;;
25497;SDS011;13406;53.380;7.226;2022-12-05T11:37:30;5.50;;;3.60;;
25497;SDS011;13406;53.380;7.226;2022-12-05T11:40:12;6.03;;;3.73;;
25497;SDS011;13406;53.380;7.226;2022-12-05T11:45:28;7.00;;;4.20;;
25497;SDS011;13406;53.380;7.226;2022-12-05T11:48:02;6.10;;;4.40;;
25497;SDS011;13406;53.380;7.226;2022-12-05T12:00:58;6.30;;;3.87;;
25497;SDS011;13406;53.380;7.226;2022-12-05T12:03:48;7.53;;;4.50;;
25497;SDS011;13406;53.380;7.226;2022-12-05T12:16:32;5.30;;;4.10;;
25497;SDS011;13406;53.380;7.226;2022-12-05T12:19:08;8.13;;;4.40;;
25497;SDS011;13406;53.380;7.226;2022-12-05T12:21:45;6.73;;;3.70;;
25497;SDS011;13406;53.380;7.226;2022-12-05T12:27:08;5.93;;;3.90;;
25497;SDS011;13406;53.380;7.226;2022-12-05T12:30:24;5.43;;;2.90;;
25497;SDS011;13406;53.380;7.226;2022-12-05T12:32:52;6.63;;;3.50;;
25497;SDS011;13406;53.380;7.226;2022-12-05T12:40:21;7.40;;;3.50;;
25497;SDS011;13406;53.380;7.226;2022-12-05T12:45:48;4.30;;;3.50;;
25497;SDS011;13406;53.380;7.226;2022-12-05T12:51:07;4.80;;;3.30;;
25497;SDS011;13406;53.380;7.226;2022-12-05T13:03:48;4.67;;;3.50;;
25497;SDS011;13406;53.380;7.226;2022-12-05T13:06:20;8.03;;;4.30;;
25497;SDS011;13406;53.380;7.226;2022-12-05T13:08:49;6.83;;;3.53;;
25497;SDS011;13406;53.380;7.226;2022-12-05T13:11:16;6.33;;;3.30;;
25497;SDS011;13406;53.380;7.226;2022-12-05T13:13:43;5.40;;;3.20;;
25497;SDS011;13406;53.380;7.226;2022-12-05T13:16:10;4.33;;;3.23;;
25497;SDS011;13406;53.380;7.226;2022-12-05T13:18:37;5.60;;;3.20;;
25497;SDS011;13406;53.380;7.226;2022-12-05T13:21:04;4.93;;;3.20;;
25497;SDS011;13406;53.380;7.226;2022-12-05T13:23:31;4.47;;;3.30;;
25497;SDS011;13406;53.380;7.226;2022-12-05T13:25:58;5.03;;;3.50;;
25497;SDS011;13406;53.380;7.226;2022-12-05T13:28:28;8.10;;;3.70;;
25497;SDS011;13406;53.380;7.226;2022-12-05T13:30:54;5.70;;;3.60;;
25497;SDS011;13406;53.380;7.226;2022-12-05T13:33:26;5.73;;;3.33;;
25497;SDS011;13406;53.380;7.226;2022-12-05T13:35:56;8.90;;;3.90;;
25497;SDS011;13406;53.380;7.226;2022-12-05T13:38:45;5.80;;;3.43;;
25497;SDS011;13406;53.380;7.226;2022-12-05T13:41:37;9.77;;;4.07;;
25497;SDS011;13406;53.380;7.226;2022-12-05T13:44:26;6.03;;;3.80;;
25497;SDS011;13406;53.380;7.226;2022-12-05T13:46:53;6.97;;;4.20;;
25497;SDS011;13406;53.380;7.226;2022-12-05T13:49:33;5.53;;;4.20;;
25497;SDS011;13406;53.380;7.226;2022-12-05T13:52:04;5.40;;;4.23;;
25497;SDS011;13406;53.380;7.226;2022-12-05T13:54:31;5.63;;;3.80;;
25497;SDS011;13406;53.380;7.226;2022-12-05T13:56:58;5.47;;;4.30;;
25497;SDS011;13406;53.380;7.226;2022-12-05T14:04:53;6.47;;;4.50;;
25497;SDS011;13406;53.380;7.226;2022-12-05T14:07:38;6.20;;;3.93;;
25497;SDS011;13406;53.380;7.226;2022-12-05T14:10:04;5.40;;;3.60;;
25497;SDS011;13406;53.380;7.226;2022-12-05T14:12:35;4.60;;;3.70;;
25497;SDS011;13406;53.380;7.226;2022-12-05T14:33:42;6.63;;;3.70;;
25497;SDS011;13406;53.380;7.226;2022-12-05T14:36:13;4.60;;;3.70;;
25497;SDS011;13406;53.380;7.226;2022-12-05T14:38:40;5.77;;;3.77;;
25497;SDS011;13406;53.380;7.226;2022-12-05T14:43:37;10.37;;;4.00;;
25497;SDS011;13406;53.380;7.226;2022-12-05T14:46:04;4.20;;;3.30;;
25497;SDS011;13406;53.380;7.226;2022-12-05T14:48:31;4.27;;;3.60;;
25497;SDS011;13406;53.380;7.226;2022-12-05T14:50:57;4.20;;;3.63;;
25497;SDS011;13406;53.380;7.226;2022-12-05T14:53:29;4.77;;;3.63;;
25497;SDS011;13406;53.380;7.226;2022-12-05T15:03:41;4.60;;;3.67;;
25497;SDS011;13406;53.380;7.226;2022-12-05T15:06:13;5.57;;;3.63;;
25497;SDS011;13406;53.380;7.226;2022-12-05T15:08:44;5.40;;;3.90;;
25497;SDS011;13406;53.380;7.226;2022-12-05T15:11:16;7.17;;;4.30;;
25497;SDS011;13406;53.380;7.226;2022-12-05T15:13:55;5.07;;;4.07;;
25497;SDS011;13406;53.380;7.226;2022-12-05T15:16:23;5.33;;;4.03;;
25497;SDS011;13406;53.380;7.226;2022-12-05T15:18:49;4.80;;;3.57;;
25497;SDS011;13406;53.380;7.226;2022-12-05T15:21:23;4.50;;;2.97;;
25497;SDS011;13406;53.380;7.226;2022-12-05T15:31:28;5.67;;;3.73;;
25497;SDS011;13406;53.380;7.226;2022-12-05T15:33:55;6.23;;;3.67;;
25497;SDS011;13406;53.380;7.226;2022-12-05T15:36:24;4.53;;;3.47;;
25497;SDS011;13406;53.380;7.226;2022-12-05T15:38:53;5.83;;;3.50;;
25497;SDS011;13406;53.380;7.226;2022-12-05T15:41:18;4.87;;;3.30;;
25497;SDS011;13406;53.380;7.226;2022-12-05T15:43:43;4.70;;;3.37;;
25497;SDS011;13406;53.380;7.226;2022-12-05T15:46:19;5.17;;;3.70;;
25497;SDS011;13406;53.380;7.226;2022-12-05T15:48:47;6.23;;;4.00;;
25497;SDS011;13406;53.380;7.226;2022-12-05T15:51:13;4.97;;;3.50;;
25497;SDS011;13406;53.380;7.226;2022-12-05T15:53:49;3.90;;;3.40;;
25497;SDS011;13406;53.380;7.226;2022-12-05T15:56:20;6.10;;;3.57;;
25497;SDS011;13406;53.380;7.226;2022-12-05T16:03:54;3.90;;;2.87;;
25497;SDS011;13406;53.380;7.226;2022-12-05T16:08:51;3.70;;;2.87;;
25497;SDS011;13406;53.380;7.226;2022-12-05T16:11:16;3.90;;;3.27;;
25497;SDS011;13406;53.380;7.226;2022-12-05T16:13:42;5.13;;;3.30;;
25497;SDS011;13406;53.380;7.226;2022-12-05T16:16:09;5.00;;;3.03;;
25497;SDS011;13406;53.380;7.226;2022-12-05T16:18:39;5.40;;;3.50;;
25497;SDS011;13406;53.380;7.226;2022-12-05T16:24:16;5.50;;;3.73;;
25497;SDS011;13406;53.380;7.226;2022-12-05T16:26:42;5.80;;;3.80;;
25497;SDS011;13406;53.380;7.226;2022-12-05T16:29:23;6.40;;;4.30;;
25497;SDS011;13406;53.380;7.226;2022-12-05T16:31:51;5.10;;;4.10;;
25497;SDS011;13406;53.380;7.226;2022-12-05T16:34:17;4.07;;;3.40;;
25497;SDS011;13406;53.380;7.226;2022-12-05T16:36:46;7.40;;;3.53;;
25497;SDS011;13406;53.380;7.226;2022-12-05T16:39:12;3.50;;;3.20;;
25497;SDS011;13406;53.380;7.226;2022-12-05T16:41:39;4.60;;;3.87;;
25497;SDS011;13406;53.380;7.226;2022-12-05T16:44:07;6.07;;;4.27;;
25497;SDS011;13406;53.380;7.226;2022-12-05T16:46:49;5.17;;;4.53;;
25497;SDS011;13406;53.380;7.226;2022-12-05T16:49:16;4.90;;;3.70;;
25497;SDS011;13406;53.380;7.226;2022-12-05T16:51:53;4.73;;;4.20;;
25497;SDS011;13406;53.380;7.226;2022-12-05T16:54:18;4.00;;;3.60;;
25497;SDS011;13406;53.380;7.226;2022-12-05T16:56:43;5.63;;;3.60;;
25497;SDS011;13406;53.380;7.226;2022-12-05T16:59:12;6.17;;;3.97;;
25497;SDS011;13406;53.380;7.226;2022-12-05T17:01:42;5.43;;;4.20;;
25497;SDS011;13406;53.380;7.226;2022-12-05T17:04:08;6.47;;;4.37;;
25497;SDS011;13406;53.380;7.226;2022-12-05T17:06:34;4.90;;;4.10;;
25497;SDS011;13406;53.380;7.226;2022-12-05T17:09:00;6.20;;;3.80;;
25497;SDS011;13406;53.380;7.226;2022-12-05T17:11:26;8.33;;;5.13;;
25497;SDS011;13406;53.380;7.226;2022-12-05T17:13:52;4.87;;;3.97;;
25497;SDS011;13406;53.380;7.226;2022-12-05T17:16:18;5.00;;;3.80;;
25497;SDS011;13406;53.380;7.226;2022-12-05T17:18:44;7.20;;;4.10;;
25497;SDS011;13406;53.380;7.226;2022-12-05T17:21:14;5.07;;;3.90;;
25497;SDS011;13406;53.380;7.226;2022-12-05T17:23:40;5.20;;;3.83;;
25497;SDS011;13406;53.380;7.226;2022-12-05T17:26:07;6.17;;;3.80;;
25497;SDS011;13406;53.380;7.226;2022-12-05T17:28:36;5.53;;;4.60;;
25497;SDS011;13406;53.380;7.226;2022-12-05T17:31:01;4.33;;;3.73;;
25497;SDS011;13406;53.380;7.226;2022-12-05T17:33:26;4.40;;;3.47;;
25497;SDS011;13406;53.380;7.226;2022-12-05T17:35:52;5.23;;;3.90;;
25497;SDS011;13406;53.380;7.226;2022-12-05T17:38:17;6.20;;;4.40;;
25497;SDS011;13406;53.380;7.226;2022-12-05T17:40:42;4.83;;;4.23;;
25497;SDS011;13406;53.380;7.226;2022-12-05T17:43:10;5.13;;;3.77;;
25497;SDS011;13406;53.380;7.226;2022-12-05T17:45:36;6.60;;;4.63;;
25497;SDS011;13406;53.380;7.226;2022-12-05T17:48:01;6.10;;;4.97;;
25497;SDS011;13406;53.380;7.226;2022-12-05T17:50:27;6.23;;;4.20;;
25497;SDS011;13406;53.380;7.226;2022-12-05T17:52:54;7.30;;;4.50;;
25497;SDS011;13406;53.380;7.226;2022-12-05T17:55:22;5.27;;;4.27;;